AirNav   Air Wisconsin pilot careers
 
 378 users online  

57FL Lake Keystone Seaplane Base
Odessa, Florida, USA

GOING TO ODESSA?


FAA INFORMATION EFFECTIVE 08 NOVEMBER 2018

Location

FAA Identifier: 57FL
Lat/Long: 28-08-09.4000N / 082-35-38.3100W
28-08.156667N / 082-35.638500W
28.1359444 / -82.5939750
(estimated)
Elevation: 42 ft. / 13 m (estimated)
From city: 3 miles SSW of ODESSA, FL
Time zone: UTC -5 (UTC -4 during Daylight Saving Time)
Zip code: 33556

Seaplane Base Operations

Seaplane Base use: Private use. Permission required prior to landing
Activation date: 09/2014
Control tower: no
ARTCC: MIAMI CENTER
FSS: SAINT PETERSBURG FLIGHT SERVICE STATION
Attendance: UNATNDD
Wind indicator: yes
Segmented circle: no

Seaplane Base Communications

WX ASOS at TPA (10 nm S): PHONE 813-873-7228
WX AWOS-3P at CLW (13 nm SW): 119.225 (727-449-2184)
WX ASOS at PIE (14 nm S): PHONE 727-531-3456
WX AWOS-3 at VDF (15 nm SE): 121.125 (813-630-0924)
WX AWOS-3 at TPF (15 nm SE): 118.925 (813-251-6824)

Nearby radio navigation aids

VOR radial/distance  VOR name  Freq  Var
PIEr024/14.5ST PETERSBURG VORTAC116.4005W
LALr285/32.0LAKELAND VORTAC116.0001E

 
NDB name  Hdg/Dist  Freq  Var  ID
COSME315/4.736805WTP - .--.
CAPOK040/10.336005WPI .--. ..

Seaplane Base Services

Runway Information

Runway 14W/32W

Dimensions: 2500 x 200 ft. / 762 x 61 m
Surface: water
RUNWAY 14W  RUNWAY 32W
Traffic pattern: leftleft

Seaplane Base Ownership and Management from official FAA records

Ownership: Privately-owned
Owner: KEYSTONE SEAPLANE, LLC
8615 VIVIAN BASS WAY
ODESSA, FL 33556
Phone 813-416-5300
Manager: KEN LEONARD SR
10523 LAKE WILLIAMS
ODESSA, FL 33556
Phone 813-416-7744

Seaplane Base Operational Statistics

Aircraft based on the field: 1
Single engine airplanes: 1
    

Instrument Procedures

There are no published instrument procedures at 57FL.

Some nearby airports with instrument procedures:

KTPA - Tampa International Airport (10 nm S)
KCLW - Clearwater Air Park (13 nm SW)
KPIE - St Pete-Clearwater International Airport (14 nm S)
KVDF - Tampa Executive Airport (15 nm SE)
KTPF - Peter O Knight Airport (15 nm SE)
KMCF - MacDill Air Force Base (18 nm S)
 
Loc | Ops | Rwys | IFR | FBO | Links
Com | Nav | Svcs | Stats | Notes


 
Aerial photo
No photo
 
Airport distance calculator
Flying to Lake Keystone Seaplane Base? Find the distance to fly.

From to 57FL

Sunrise and sunset
Times for 22-Nov-2018
 Local
(UTC-5)
 Zulu
(UTC)
Morning civil twilight06:3411:34
Sunrise06:5911:59
Sunset17:3422:34
Evening civil twilight17:5922:59

Current date and time
Zulu (UTC)  22-Nov-2018 11:58:55
Local (UTC-5)  22-Nov-2018 06:58:55
 
METAR
KTPA 
11nm S 
221153Z 03005KT 10SM BKN260 13/09 A3020 RMK AO2 SLP225 T01330094 10156 20133 53015
KCLW 
13nm SW 
221155Z AUTO 00000KT 10SM CLR 12/08 A3019 RMK AO2
KPIE 
14nm S 
221153Z 06008KT 10SM CLR 14/11 A3019 RMK AO2 SLP222 T01440106 10161 20144 51013
KVDF 
15nm SE 
221155Z AUTO 00000KT 10SM CLR 10/10 A3021 RMK AO2
KTPF 
15nm SE 
221155Z AUTO 03007KT 10SM BKN110 13/11 A3019 RMK AO2
KMCF 
18nm S 
221056Z AUTO 07008KT 10SM CLR 13/09 A3018 RMK AO2 SLP223 T01340093 FZRANO $
KBKV 
21nm N 
221153Z 03005KT 10SM CLR 10/08 A3020 RMK AO2 SLP225 T01000078 10111 20067 51010
TAF
KTPA 
11nm S 
221120Z 2212/2318 03004KT P6SM BKN250 FM221400 04007KT P6SM SCT150 BKN250 FM230100 03004KT P6SM SCT035 BKN150
KPIE 
14nm S 
221120Z 2212/2312 05005KT P6SM BKN250 FM221400 04009KT P6SM SCT150 BKN250 FM230100 03006KT P6SM SCT035 BKN150
KMCF 
18nm S 
220900Z 2209/2315 01006KT 9999 FEW040 SCT280 QNH3010INS BECMG 2306/2307 02006KT 9999 BKN030 QNH3006INS TX24/2220Z TN14/2213Z
NOTAMs
Click for the latest NOTAMs
NOTAMs are issued by the DoD/FAA and will open in a separate window not controlled by AirNav.

 

 
 

Would you like to see your business listed on this page?

 If your business provides an interesting product or service to pilots, flight crews, aircraft, or users of the Lake Keystone Seaplane Base, you should consider listing it here.  To start the listing process, click on the button below
 
Add a business
 

Other Pages about Lake Keystone Seaplane Base

Update a link
 
Copyright © AirNav, LLC. All rights reserved. Privacy Policy  Contact